Avalon, CA

10:13 AM PST on December 07, 2016 (GMT -0800)
The Flats, Avalon | | Change Station

Elev 26 ft 33.34 °N, 118.33 °W | Updated 8 seconds ago

Scattered Clouds
Scattered Clouds
60.3 °F
Feels Like 60.3 °F
N
0.0
Wind Variable Wind from NW
Gusts 0.0 mph

Today
High -- | Low -- °F
--% Chance of Precip.
Yesterday
High -- | Low -- °F
Precip. -- in
Pressure 30.11 in
Visibility 10.0 miles
Clouds Scattered Clouds 600 ft
Dew Point 53 °F
Humidity 78%
Rainfall 0.00 in
Snow Depth Not available.
6:44 AM 4:45 PM
First Quarter, 54% visible
METAR KAVX 071751Z AUTO 05003KT 10SM SCT006 12/10 A3011 RMK AO2 SLP196 T01170100 10117 20100 53018 TSNO
Pressure 30.11 in
Visibility 10.0 miles
Clouds Scattered Clouds 600 ft
Dew Point 53 °F
Humidity 78%
Rainfall 0.00 in
Snow Depth Not available.
6:44 AM 4:45 PM
First Quarter, 54% visible
METAR KAVX 071751Z AUTO 05003KT 10SM SCT006 12/10 A3011 RMK AO2 SLP196 T01170100 10117 20100 53018 TSNO

10-Day Weather Forecast

Almanac

Astronomy

Dec. 07, 2016 Rise Set
Actual Time
Civil Twilight
Nautical Twilight
Astronomical Twilight
Moon
Length of Visible Light
Length of Day
Tomorrow will be .
, % of the Moon is Illuminated

Today's Extremes

State Highs State Lows

Community

WunderPhotos

Upload Photos

1,956,157 photos uploaded!

WunderBlog® & News

Nearby

Air Quality

  Air Quality AQ Index Pollutant
Not available.

Snow Depth

Station Depth Elevation

Earthquake Activity

City Distance Mag. Time & Date
Minimum magnitude displayed is 2.5.

Coastal Water Temperatures

Place Temperature

Stations

Nearby Weather Stations

Station Location Temp. Windchill Dew Point Humidity Wind Precip. Elev Updated Type
                   

Watches & Warnings

There are currently no watches in effect.